Michelle C — 2CRW6 — position and weather

sailwx.info

Track history (hours):
 
Tides and Currents Weather Stations Pressure Air Temp Water Temp Dewpoint Dewpoint Depression Visibility Wind Speed Wind Dir Waves Ship Positions

Michelle C

Last reported at 2018-Feb-15 00:59 UTC. Time now 2018-Feb-24 00:25 UTC.
Position N 09°11' W 079°52'.
Warning: this ship's position is 8 days out of date.

Length 138 m; draft 5.6 m.

Type: Cargo ship. MMSI: 235075245.

Date/timePositionNaut miles runAvg speedWind from/ knotsBaromVisibWave heightAir tempDewpointWater temp
2018-Feb-15 00:59N 09°11' W 079°52'610.2
2018-Feb-15 00:27N 09°15' W 079°55'1 1.0
2018-Feb-14 23:29N 09°16' W 079°55'0 0.4
2018-Feb-14 22:59N 09°17' W 079°55'1 3.0
2018-Feb-14 22:30N 09°18' W 079°55'4 8.5
2018-Feb-14 22:00N 09°22' W 079°55'1 1.3
2018-Feb-14 21:29N 09°23' W 079°55'0 0.0
2018-Feb-14 20:59N 09°23' W 079°55'0 0.0
2018-Feb-14 20:29N 09°23' W 079°55'0 0.0
2018-Feb-14 19:59N 09°23' W 079°55'0 0.0
2018-Feb-14 19:29N 09°23' W 079°55'0 0.0
2018-Feb-14 18:59N 09°23' W 079°55'0 0.0
2018-Feb-14 18:29N 09°23' W 079°55'0 0.0
2018-Feb-14 17:59N 09°23' W 079°55'0 0.0
2018-Feb-14 17:29N 09°23' W 079°55'0 0.0
2018-Feb-14 16:59N 09°23' W 079°55'0 0.0
2018-Feb-14 16:29N 09°23' W 079°55'0 0.0
2018-Feb-14 15:59N 09°23' W 079°55'0 0.0
2018-Feb-14 15:29N 09°23' W 079°55'0 0.0
2018-Feb-14 14:59N 09°23' W 079°55'0 0.0
2018-Feb-14 14:29N 09°23' W 079°55'0 0.0
2018-Feb-14 13:59N 09°23' W 079°55'0 0.0
2018-Feb-14 13:29N 09°23' W 079°55'0 0.0
2018-Feb-14 12:59N 09°23' W 079°55'0 0.0
2018-Feb-14 12:29N 09°23' W 079°55'0 0.0
2018-Feb-14 11:59N 09°23' W 079°55'0 0.0
2018-Feb-14 11:29N 09°23' W 079°55'0 0.0
2018-Feb-14 10:59N 09°23' W 079°55'0 0.0
2018-Feb-14 10:29N 09°23' W 079°55'0 0.0
2018-Feb-14 09:59N 09°23' W 079°55'0 0.0
2018-Feb-14 09:29N 09°23' W 079°55'0 0.0
2018-Feb-14 08:59N 09°23' W 079°55'0 0.0
2018-Feb-14 08:29N 09°23' W 079°55'0 0.0
2018-Feb-14 07:59N 09°23' W 079°55'0 0.0
2018-Feb-14 07:29N 09°23' W 079°55'0 0.0
2018-Feb-14 06:59N 09°23' W 079°55'0 0.0
2018-Feb-14 06:29N 09°23' W 079°55'0 0.0
2018-Feb-14 05:59N 09°23' W 079°55'0 0.0
2018-Feb-14 05:29N 09°23' W 079°55'0 0.0
2018-Feb-14 04:59N 09°23' W 079°55'0 0.0
2018-Feb-14 04:29N 09°23' W 079°55'0 0.0
2018-Feb-14 03:59N 09°23' W 079°55'0 0.0
2018-Feb-14 03:29N 09°23' W 079°55'0 0.0
2018-Feb-14 02:59N 09°23' W 079°55'0 0.0
2018-Feb-14 02:29N 09°23' W 079°55'0 0.0
2018-Feb-14 01:59N 09°23' W 079°55'0 0.0
2018-Feb-14 01:29N 09°23' W 079°55'0 0.0
2018-Feb-14 00:59N 09°23' W 079°55'0 0.0
2018-Feb-14 00:30N 09°23' W 079°55'0 0.4
2018-Feb-14 00:00N 09°23' W 079°55'3 5.7
2018-Feb-13 23:30N 09°26' W 079°55'510.3
2018-Feb-13 23:00N 09°31' W 079°53'30412.3
2018-Feb-12 22:19N 11°05' W 075°00'513.4
2018-Feb-12 21:57N 11°07' W 074°55'4 9.2
2018-Feb-12 21:29N 11°05' W 074°51'4 6.9
2018-Feb-12 20:58N 11°02' W 074°49'0 0.0
2018-Feb-12 20:26N 11°02' W 074°49'0 0.0
2018-Feb-12 19:59N 11°02' W 074°49'0 0.0
2018-Feb-12 19:30N 11°02' W 074°49'0 0.0
2018-Feb-12 19:00N 11°02' W 074°49'0 0.0
2018-Feb-12 18:26N 11°02' W 074°49'0 0.0
2018-Feb-12 18:00N 11°02' W 074°49'0 0.0
2018-Feb-12 17:30N 11°02' W 074°49'0 0.0
2018-Feb-12 17:00N 11°02' W 074°49'0 0.0
2018-Feb-12 16:30N 11°02' W 074°49'0 0.0
2018-Feb-12 16:00N 11°02' W 074°49'0 0.0
2018-Feb-12 15:30N 11°02' W 074°49'0 0.0
2018-Feb-12 15:00N 11°02' W 074°49'0 0.0
2018-Feb-12 14:30N 11°02' W 074°49'0 0.0
2018-Feb-12 14:00N 11°02' W 074°49'0 0.0
2018-Feb-12 13:30N 11°02' W 074°49'0 0.0
2018-Feb-12 13:00N 11°02' W 074°49'0 0.0
2018-Feb-12 12:30N 11°02' W 074°49'0 0.0
2018-Feb-11 22:37N 11°02' W 074°49'0 0.0
2018-Feb-11 22:14N 11°02' W 074°49'0 0.0
2018-Feb-11 21:56N 11°02' W 074°49'0 0.0
2018-Feb-11 21:22N 11°02' W 074°49'0 0.0
2018-Feb-11 20:59N 11°02' W 074°49'0 0.0
2018-Feb-11 20:28N 11°02' W 074°49'0 0.0
2018-Feb-11 19:57N 11°02' W 074°49'0 0.0
2018-Feb-11 19:30N 11°02' W 074°49'0 0.0
2018-Feb-11 19:01N 11°02' W 074°49'0 0.0
2018-Feb-11 18:30N 11°02' W 074°49'0 0.0
2018-Feb-11 18:00N 11°02' W 074°49'0 0.0
2018-Feb-11 17:30N 11°02' W 074°49'0 0.0
2018-Feb-11 17:00N 11°02' W 074°49'0 0.0
2018-Feb-11 16:30N 11°02' W 074°49'0 0.0
2018-Feb-11 16:00N 11°02' W 074°49'0 0.0
2018-Feb-11 15:30N 11°02' W 074°49'0 0.0
2018-Feb-11 15:00N 11°02' W 074°49'0 0.0
2018-Feb-11 14:30N 11°02' W 074°49'0 0.0
2018-Feb-11 14:00N 11°02' W 074°49'0 0.0
2018-Feb-11 13:31N 11°02' W 074°49'0 0.0
2018-Feb-11 13:00N 11°02' W 074°49'0 0.0
2018-Feb-11 12:29N 11°02' W 074°49'0 0.0
2018-Feb-10 21:42N 11°02' W 074°49'0 0.0
2018-Feb-10 21:29N 11°02' W 074°49'0 0.0
2018-Feb-10 20:59N 11°02' W 074°49'0 0.0
2018-Feb-10 20:29N 11°02' W 074°49'0 0.0
2018-Feb-10 19:59N 11°02' W 074°49'0 0.0
2018-Feb-10 19:30N 11°02' W 074°49'0 0.0
2018-Feb-10 19:00N 11°02' W 074°49'0 0.0
2018-Feb-10 18:30N 11°02' W 074°49'0 0.0
2018-Feb-10 18:00N 11°02' W 074°49'0 0.0
2018-Feb-10 17:30N 11°02' W 074°49'0 0.0
2018-Feb-10 17:01N 11°02' W 074°49'0 0.0
2018-Feb-10 16:30N 11°02' W 074°49'0 0.0
2018-Feb-10 16:00N 11°02' W 074°49'0 0.0
2018-Feb-10 15:30N 11°02' W 074°49'0 0.1
2018-Feb-10 15:00N 11°02' W 074°49'2 4.8
2018-Feb-10 14:29N 11°04' W 074°51'3 6.1
2018-Feb-10 14:00N 11°07' W 074°52'3 5.3
2018-Feb-10 13:30N 11°07' W 074°55'3 6.4
2018-Feb-10 13:00N 11°07' W 074°58'3 6.6
2018-Feb-10 12:30N 11°08' W 075°02'  
2018-Feb-07 09:30N 11°13' W 074°43'1 1.6
2018-Feb-07 08:59N 11°13' W 074°44'1 1.4
2018-Feb-07 08:29N 11°13' W 074°45'1 1.5
2018-Feb-07 07:59N 11°12' W 074°45'1 1.6
2018-Feb-07 07:27N 11°12' W 074°46'1 1.9
2018-Feb-07 06:58N 11°12' W 074°47'1 2.0
2018-Feb-07 06:29N 11°12' W 074°48'1 1.4
2018-Feb-07 06:00N 11°12' W 074°49'1 0.8
2018-Feb-07 05:08N 11°12' W 074°49'1 7.0
2018-Feb-07 05:00N 11°13' W 074°49'3 5.8
2018-Feb-07 04:27N 11°15' W 074°47'2 0.3
2018-Feb-06 22:25N 11°14' W 074°45'1 1.3
2018-Feb-06 21:57N 11°14' W 074°46'0 0.7
2018-Feb-06 21:25N 11°14' W 074°46'0 0.9
2018-Feb-06 20:55N 11°13' W 074°46'0 0.9
2018-Feb-06 20:28N 11°13' W 074°46'0 0.9
2018-Feb-06 19:58N 11°13' W 074°47'0 0.8
2018-Feb-06 19:30N 11°13' W 074°47'1 1.1
2018-Feb-06 18:59N 11°12' W 074°47'1 1.3
2018-Feb-06 18:30N 11°12' W 074°48'1 1.2
2018-Feb-06 17:59N 11°11' W 074°48'0 0.9
2018-Feb-06 17:29N 11°11' W 074°49'1 1.0
2018-Feb-06 16:55N 11°11' W 074°49'1 2.8
2018-Feb-06 16:29N 11°10' W 074°50'2 3.2
2018-Feb-06 16:00N 11°09' W 074°51'2 4.0
2018-Feb-06 15:30N 11°08' W 074°53'2 4.6
2018-Feb-06 15:00N 11°08' W 074°55'3 5.7
2018-Feb-06 14:30N 11°08' W 074°58'  
Track history (hours):
 
Tides and Currents Weather Stations Pressure Air Temp Water Temp Dewpoint Dewpoint Depression Visibility Wind Speed Wind Dir Waves Ship Positions

Michelle C

Last reported at 2018-Feb-15 00:59 UTC. Time now 2018-Feb-24 00:25 UTC.
Position N 09°11' W 079°52'.
Warning: this ship's position is 8 days out of date.

Length 138 m; draft 5.6 m.

Type: Cargo ship. MMSI: 235075245.

Date/timePositionNaut miles runAvg speedWind from/ knotsBaromVisibWave heightAir tempDewpointWater temp
2018-Feb-15 00:59N 09°11' W 079°52'610.2
2018-Feb-15 00:27N 09°15' W 079°55'1 1.0
2018-Feb-14 23:29N 09°16' W 079°55'0 0.4
2018-Feb-14 22:59N 09°17' W 079°55'1 3.0
2018-Feb-14 22:30N 09°18' W 079°55'4 8.5
2018-Feb-14 22:00N 09°22' W 079°55'1 1.3
2018-Feb-14 21:29N 09°23' W 079°55'0 0.0
2018-Feb-14 20:59N 09°23' W 079°55'0 0.0
2018-Feb-14 20:29N 09°23' W 079°55'0 0.0
2018-Feb-14 19:59N 09°23' W 079°55'0 0.0
2018-Feb-14 19:29N 09°23' W 079°55'0 0.0
2018-Feb-14 18:59N 09°23' W 079°55'0 0.0
2018-Feb-14 18:29N 09°23' W 079°55'0 0.0
2018-Feb-14 17:59N 09°23' W 079°55'0 0.0
2018-Feb-14 17:29N 09°23' W 079°55'0 0.0
2018-Feb-14 16:59N 09°23' W 079°55'0 0.0
2018-Feb-14 16:29N 09°23' W 079°55'0 0.0
2018-Feb-14 15:59N 09°23' W 079°55'0 0.0
2018-Feb-14 15:29N 09°23' W 079°55'0 0.0
2018-Feb-14 14:59N 09°23' W 079°55'0 0.0
2018-Feb-14 14:29N 09°23' W 079°55'0 0.0
2018-Feb-14 13:59N 09°23' W 079°55'0 0.0
2018-Feb-14 13:29N 09°23' W 079°55'0 0.0
2018-Feb-14 12:59N 09°23' W 079°55'0 0.0
2018-Feb-14 12:29N 09°23' W 079°55'0 0.0
2018-Feb-14 11:59N 09°23' W 079°55'0 0.0
2018-Feb-14 11:29N 09°23' W 079°55'0 0.0
2018-Feb-14 10:59N 09°23' W 079°55'0 0.0
2018-Feb-14 10:29N 09°23' W 079°55'0 0.0
2018-Feb-14 09:59N 09°23' W 079°55'0 0.0
2018-Feb-14 09:29N 09°23' W 079°55'0 0.0
2018-Feb-14 08:59N 09°23' W 079°55'0 0.0
2018-Feb-14 08:29N 09°23' W 079°55'0 0.0
2018-Feb-14 07:59N 09°23' W 079°55'0 0.0
2018-Feb-14 07:29N 09°23' W 079°55'0 0.0
2018-Feb-14 06:59N 09°23' W 079°55'0 0.0
2018-Feb-14 06:29N 09°23' W 079°55'0 0.0
2018-Feb-14 05:59N 09°23' W 079°55'0 0.0
2018-Feb-14 05:29N 09°23' W 079°55'0 0.0
2018-Feb-14 04:59N 09°23' W 079°55'0 0.0
2018-Feb-14 04:29N 09°23' W 079°55'0 0.0
2018-Feb-14 03:59N 09°23' W 079°55'0 0.0
2018-Feb-14 03:29N 09°23' W 079°55'0 0.0
2018-Feb-14 02:59N 09°23' W 079°55'0 0.0
2018-Feb-14 02:29N 09°23' W 079°55'0 0.0
2018-Feb-14 01:59N 09°23' W 079°55'0 0.0
2018-Feb-14 01:29N 09°23' W 079°55'0 0.0
2018-Feb-14 00:59N 09°23' W 079°55'0 0.0
2018-Feb-14 00:30N 09°23' W 079°55'0 0.4
2018-Feb-14 00:00N 09°23' W 079°55'3 5.7
2018-Feb-13 23:30N 09°26' W 079°55'510.3
2018-Feb-13 23:00N 09°31' W 079°53'30412.3
2018-Feb-12 22:19N 11°05' W 075°00'513.4
2018-Feb-12 21:57N 11°07' W 074°55'4 9.2
2018-Feb-12 21:29N 11°05' W 074°51'4 6.9
2018-Feb-12 20:58N 11°02' W 074°49'0 0.0
2018-Feb-12 20:26N 11°02' W 074°49'0 0.0
2018-Feb-12 19:59N 11°02' W 074°49'0 0.0
2018-Feb-12 19:30N 11°02' W 074°49'0 0.0
2018-Feb-12 19:00N 11°02' W 074°49'0 0.0
2018-Feb-12 18:26N 11°02' W 074°49'0 0.0
2018-Feb-12 18:00N 11°02' W 074°49'0 0.0
2018-Feb-12 17:30N 11°02' W 074°49'0 0.0
2018-Feb-12 17:00N 11°02' W 074°49'0 0.0
2018-Feb-12 16:30N 11°02' W 074°49'0 0.0
2018-Feb-12 16:00N 11°02' W 074°49'0 0.0
2018-Feb-12 15:30N 11°02' W 074°49'0 0.0
2018-Feb-12 15:00N 11°02' W 074°49'0 0.0
2018-Feb-12 14:30N 11°02' W 074°49'0 0.0
2018-Feb-12 14:00N 11°02' W 074°49'0 0.0
2018-Feb-12 13:30N 11°02' W 074°49'0 0.0
2018-Feb-12 13:00N 11°02' W 074°49'0 0.0
2018-Feb-12 12:30N 11°02' W 074°49'0 0.0
2018-Feb-11 22:37N 11°02' W 074°49'0 0.0
2018-Feb-11 22:14N 11°02' W 074°49'0 0.0
2018-Feb-11 21:56N 11°02' W 074°49'0 0.0
2018-Feb-11 21:22N 11°02' W 074°49'0 0.0
2018-Feb-11 20:59N 11°02' W 074°49'0 0.0
2018-Feb-11 20:28N 11°02' W 074°49'0 0.0
2018-Feb-11 19:57N 11°02' W 074°49'0 0.0
2018-Feb-11 19:30N 11°02' W 074°49'0 0.0
2018-Feb-11 19:01N 11°02' W 074°49'0 0.0
2018-Feb-11 18:30N 11°02' W 074°49'0 0.0
2018-Feb-11 18:00N 11°02' W 074°49'0 0.0
2018-Feb-11 17:30N 11°02' W 074°49'0 0.0
2018-Feb-11 17:00N 11°02' W 074°49'0 0.0
2018-Feb-11 16:30N 11°02' W 074°49'0 0.0
2018-Feb-11 16:00N 11°02' W 074°49'0 0.0
2018-Feb-11 15:30N 11°02' W 074°49'0 0.0
2018-Feb-11 15:00N 11°02' W 074°49'0 0.0
2018-Feb-11 14:30N 11°02' W 074°49'0 0.0
2018-Feb-11 14:00N 11°02' W 074°49'0 0.0
2018-Feb-11 13:31N 11°02' W 074°49'0 0.0
2018-Feb-11 13:00N 11°02' W 074°49'0 0.0
2018-Feb-11 12:29N 11°02' W 074°49'0 0.0
2018-Feb-10 21:42N 11°02' W 074°49'0 0.0
2018-Feb-10 21:29N 11°02' W 074°49'0 0.0
2018-Feb-10 20:59N 11°02' W 074°49'0 0.0
2018-Feb-10 20:29N 11°02' W 074°49'0 0.0
2018-Feb-10 19:59N 11°02' W 074°49'0 0.0
2018-Feb-10 19:30N 11°02' W 074°49'0 0.0
2018-Feb-10 19:00N 11°02' W 074°49'0 0.0
2018-Feb-10 18:30N 11°02' W 074°49'0 0.0
2018-Feb-10 18:00N 11°02' W 074°49'0 0.0
2018-Feb-10 17:30N 11°02' W 074°49'0 0.0
2018-Feb-10 17:01N 11°02' W 074°49'0 0.0
2018-Feb-10 16:30N 11°02' W 074°49'0 0.0
2018-Feb-10 16:00N 11°02' W 074°49'0 0.0
2018-Feb-10 15:30N 11°02' W 074°49'0 0.1
2018-Feb-10 15:00N 11°02' W 074°49'2 4.8
2018-Feb-10 14:29N 11°04' W 074°51'3 6.1
2018-Feb-10 14:00N 11°07' W 074°52'3 5.3
2018-Feb-10 13:30N 11°07' W 074°55'3 6.4
2018-Feb-10 13:00N 11°07' W 074°58'3 6.6
2018-Feb-10 12:30N 11°08' W 075°02'  
2018-Feb-07 09:30N 11°13' W 074°43'1 1.6
2018-Feb-07 08:59N 11°13' W 074°44'1 1.4
2018-Feb-07 08:29N 11°13' W 074°45'1 1.5
2018-Feb-07 07:59N 11°12' W 074°45'1 1.6
2018-Feb-07 07:27N 11°12' W 074°46'1 1.9
2018-Feb-07 06:58N 11°12' W 074°47'1 2.0
2018-Feb-07 06:29N 11°12' W 074°48'1 1.4
2018-Feb-07 06:00N 11°12' W 074°49'1 0.8
2018-Feb-07 05:08N 11°12' W 074°49'1 7.0
2018-Feb-07 05:00N 11°13' W 074°49'3 5.8
2018-Feb-07 04:27N 11°15' W 074°47'2 0.3
2018-Feb-06 22:25N 11°14' W 074°45'1 1.3
2018-Feb-06 21:57N 11°14' W 074°46'0 0.7
2018-Feb-06 21:25N 11°14' W 074°46'0 0.9
2018-Feb-06 20:55N 11°13' W 074°46'0 0.9
2018-Feb-06 20:28N 11°13' W 074°46'0 0.9
2018-Feb-06 19:58N 11°13' W 074°47'0 0.8
2018-Feb-06 19:30N 11°13' W 074°47'1 1.1
2018-Feb-06 18:59N 11°12' W 074°47'1 1.3
2018-Feb-06 18:30N 11°12' W 074°48'1 1.2
2018-Feb-06 17:59N 11°11' W 074°48'0 0.9
2018-Feb-06 17:29N 11°11' W 074°49'1 1.0
2018-Feb-06 16:55N 11°11' W 074°49'1 2.8
2018-Feb-06 16:29N 11°10' W 074°50'2 3.2
2018-Feb-06 16:00N 11°09' W 074°51'2 4.0
2018-Feb-06 15:30N 11°08' W 074°53'2 4.6
2018-Feb-06 15:00N 11°08' W 074°55'3 5.7
2018-Feb-06 14:30N 11°08' W 074°58'  

Dump ship's entire track history